sensor_id;sensor_type;location;lat;lon;timestamp;temperature;humidity
22212;DHT22;11275;52.488;13.462;2023-07-31T00:00:28;18.40;99.90
22212;DHT22;11275;52.488;13.462;2023-07-31T00:02:54;18.40;99.90
22212;DHT22;11275;52.488;13.462;2023-07-31T00:05:20;18.30;99.90
22212;DHT22;11275;52.488;13.462;2023-07-31T00:07:46;18.20;99.90
22212;DHT22;11275;52.488;13.462;2023-07-31T00:10:11;18.20;99.90
22212;DHT22;11275;52.488;13.462;2023-07-31T00:12:39;18.10;99.90
22212;DHT22;11275;52.488;13.462;2023-07-31T00:15:06;18.10;99.90
22212;DHT22;11275;52.488;13.462;2023-07-31T00:17:31;18.00;99.90
22212;DHT22;11275;52.488;13.462;2023-07-31T00:19:57;18.10;99.90
22212;DHT22;11275;52.488;13.462;2023-07-31T00:22:23;18.00;99.90
22212;DHT22;11275;52.488;13.462;2023-07-31T00:24:49;18.00;99.90
22212;DHT22;11275;52.488;13.462;2023-07-31T00:27:14;18.00;99.90
22212;DHT22;11275;52.488;13.462;2023-07-31T00:29:40;18.10;99.90
22212;DHT22;11275;52.488;13.462;2023-07-31T00:32:06;18.00;99.90
22212;DHT22;11275;52.488;13.462;2023-07-31T00:34:32;18.10;99.90
22212;DHT22;11275;52.488;13.462;2023-07-31T00:36:57;18.10;99.90
22212;DHT22;11275;52.488;13.462;2023-07-31T00:39:23;18.00;99.90
22212;DHT22;11275;52.488;13.462;2023-07-31T00:41:49;17.90;99.90
22212;DHT22;11275;52.488;13.462;2023-07-31T00:44:14;17.80;99.90
22212;DHT22;11275;52.488;13.462;2023-07-31T00:46:40;17.70;99.90
22212;DHT22;11275;52.488;13.462;2023-07-31T00:49:05;17.70;99.90
22212;DHT22;11275;52.488;13.462;2023-07-31T00:51:31;17.50;99.90
22212;DHT22;11275;52.488;13.462;2023-07-31T00:53:58;17.50;99.90
22212;DHT22;11275;52.488;13.462;2023-07-31T00:56:24;17.60;99.90
22212;DHT22;11275;52.488;13.462;2023-07-31T00:58:50;17.50;99.90
22212;DHT22;11275;52.488;13.462;2023-07-31T01:01:16;17.60;99.90
22212;DHT22;11275;52.488;13.462;2023-07-31T01:03:41;17.60;99.90
22212;DHT22;11275;52.488;13.462;2023-07-31T01:06:15;17.70;99.90
22212;DHT22;11275;52.488;13.462;2023-07-31T01:09:04;17.80;99.90
22212;DHT22;11275;52.488;13.462;2023-07-31T01:11:34;17.80;99.90
22212;DHT22;11275;52.488;13.462;2023-07-31T01:14:01;17.80;99.90
22212;DHT22;11275;52.488;13.462;2023-07-31T01:16:27;17.90;99.90
22212;DHT22;11275;52.488;13.462;2023-07-31T01:18:52;17.90;99.90
22212;DHT22;11275;52.488;13.462;2023-07-31T01:26:34;18.10;99.90
22212;DHT22;11275;52.488;13.462;2023-07-31T01:31:29;18.10;99.90
22212;DHT22;11275;52.488;13.462;2023-07-31T01:33:57;18.10;99.90
22212;DHT22;11275;52.488;13.462;2023-07-31T01:36:25;18.10;99.90
22212;DHT22;11275;52.488;13.462;2023-07-31T01:38:51;18.10;99.90
22212;DHT22;11275;52.488;13.462;2023-07-31T01:41:17;18.10;99.90
22212;DHT22;11275;52.488;13.462;2023-07-31T01:43:44;18.00;99.90
22212;DHT22;11275;52.488;13.462;2023-07-31T01:46:10;18.00;99.90
22212;DHT22;11275;52.488;13.462;2023-07-31T01:48:36;17.90;99.90
22212;DHT22;11275;52.488;13.462;2023-07-31T01:51:02;17.80;99.90
22212;DHT22;11275;52.488;13.462;2023-07-31T01:53:30;17.80;99.90
22212;DHT22;11275;52.488;13.462;2023-07-31T01:55:55;17.80;99.90
22212;DHT22;11275;52.488;13.462;2023-07-31T01:58:21;17.80;99.90
22212;DHT22;11275;52.488;13.462;2023-07-31T02:00:46;17.70;99.90
22212;DHT22;11275;52.488;13.462;2023-07-31T02:03:12;17.60;99.90
22212;DHT22;11275;52.488;13.462;2023-07-31T02:05:47;17.50;99.90
22212;DHT22;11275;52.488;13.462;2023-07-31T02:08:13;17.50;99.90
22212;DHT22;11275;52.488;13.462;2023-07-31T02:10:39;17.60;99.90
22212;DHT22;11275;52.488;13.462;2023-07-31T02:13:05;17.70;99.90
22212;DHT22;11275;52.488;13.462;2023-07-31T02:15:30;17.70;99.90
22212;DHT22;11275;52.488;13.462;2023-07-31T02:17:56;17.70;99.90
22212;DHT22;11275;52.488;13.462;2023-07-31T02:20:22;17.70;99.90
22212;DHT22;11275;52.488;13.462;2023-07-31T02:22:47;17.70;99.90
22212;DHT22;11275;52.488;13.462;2023-07-31T02:25:13;17.70;99.90
22212;DHT22;11275;52.488;13.462;2023-07-31T02:27:39;17.70;99.90
22212;DHT22;11275;52.488;13.462;2023-07-31T02:30:05;17.60;99.90
22212;DHT22;11275;52.488;13.462;2023-07-31T02:32:31;17.60;99.90
22212;DHT22;11275;52.488;13.462;2023-07-31T02:34:56;17.60;99.90
22212;DHT22;11275;52.488;13.462;2023-07-31T02:37:22;17.60;99.90
22212;DHT22;11275;52.488;13.462;2023-07-31T02:39:48;17.60;99.90
22212;DHT22;11275;52.488;13.462;2023-07-31T02:42:14;17.60;99.90
22212;DHT22;11275;52.488;13.462;2023-07-31T02:44:40;17.60;99.90
22212;DHT22;11275;52.488;13.462;2023-07-31T02:47:05;17.60;99.90
22212;DHT22;11275;52.488;13.462;2023-07-31T02:49:31;17.60;99.90
22212;DHT22;11275;52.488;13.462;2023-07-31T02:51:57;17.60;99.90
22212;DHT22;11275;52.488;13.462;2023-07-31T02:54:23;17.50;99.90
22212;DHT22;11275;52.488;13.462;2023-07-31T02:56:48;17.50;99.90
22212;DHT22;11275;52.488;13.462;2023-07-31T02:59:14;17.50;99.90
22212;DHT22;11275;52.488;13.462;2023-07-31T03:01:39;17.60;99.90
22212;DHT22;11275;52.488;13.462;2023-07-31T03:04:05;17.60;99.90
22212;DHT22;11275;52.488;13.462;2023-07-31T03:06:31;17.60;99.90
22212;DHT22;11275;52.488;13.462;2023-07-31T03:08:56;17.60;99.90
22212;DHT22;11275;52.488;13.462;2023-07-31T03:11:22;17.60;99.90
22212;DHT22;11275;52.488;13.462;2023-07-31T03:13:47;17.70;99.90
22212;DHT22;11275;52.488;13.462;2023-07-31T03:16:13;17.70;99.90
22212;DHT22;11275;52.488;13.462;2023-07-31T03:18:39;17.80;99.90
22212;DHT22;11275;52.488;13.462;2023-07-31T03:21:04;17.80;99.90
22212;DHT22;11275;52.488;13.462;2023-07-31T03:23:30;17.80;99.90
22212;DHT22;11275;52.488;13.462;2023-07-31T03:26:01;17.80;99.90
22212;DHT22;11275;52.488;13.462;2023-07-31T03:28:29;17.80;99.90
22212;DHT22;11275;52.488;13.462;2023-07-31T03:30:55;17.80;99.90
22212;DHT22;11275;52.488;13.462;2023-07-31T03:33:20;17.80;99.90
22212;DHT22;11275;52.488;13.462;2023-07-31T03:35:46;17.80;99.90
22212;DHT22;11275;52.488;13.462;2023-07-31T03:38:12;17.80;99.90
22212;DHT22;11275;52.488;13.462;2023-07-31T03:40:37;17.80;99.90
22212;DHT22;11275;52.488;13.462;2023-07-31T03:43:03;17.80;99.90
22212;DHT22;11275;52.488;13.462;2023-07-31T03:45:28;17.80;99.90
22212;DHT22;11275;52.488;13.462;2023-07-31T03:47:54;17.80;99.90
22212;DHT22;11275;52.488;13.462;2023-07-31T03:50:20;17.80;99.90
22212;DHT22;11275;52.488;13.462;2023-07-31T03:52:46;17.80;99.90
22212;DHT22;11275;52.488;13.462;2023-07-31T03:55:12;17.80;99.90
22212;DHT22;11275;52.488;13.462;2023-07-31T03:57:38;17.80;99.90
22212;DHT22;11275;52.488;13.462;2023-07-31T04:00:03;17.80;99.90
22212;DHT22;11275;52.488;13.462;2023-07-31T04:02:29;17.80;99.90
22212;DHT22;11275;52.488;13.462;2023-07-31T04:04:55;17.80;99.90
22212;DHT22;11275;52.488;13.462;2023-07-31T04:07:20;17.80;99.90
22212;DHT22;11275;52.488;13.462;2023-07-31T04:09:46;17.90;99.90
22212;DHT22;11275;52.488;13.462;2023-07-31T04:12:12;17.90;99.90
22212;DHT22;11275;52.488;13.462;2023-07-31T04:14:37;17.90;99.90
22212;DHT22;11275;52.488;13.462;2023-07-31T04:17:03;17.80;99.90
22212;DHT22;11275;52.488;13.462;2023-07-31T04:19:28;17.80;99.90
22212;DHT22;11275;52.488;13.462;2023-07-31T04:21:54;17.90;99.90
22212;DHT22;11275;52.488;13.462;2023-07-31T04:24:20;17.90;99.90
22212;DHT22;11275;52.488;13.462;2023-07-31T04:26:51;17.90;99.90
22212;DHT22;11275;52.488;13.462;2023-07-31T04:29:17;18.00;99.90
22212;DHT22;11275;52.488;13.462;2023-07-31T04:31:43;18.00;99.90
22212;DHT22;11275;52.488;13.462;2023-07-31T04:34:09;18.00;99.90
22212;DHT22;11275;52.488;13.462;2023-07-31T04:36:35;18.00;99.90
22212;DHT22;11275;52.488;13.462;2023-07-31T04:39:01;18.10;99.90
22212;DHT22;11275;52.488;13.462;2023-07-31T04:41:26;18.10;99.90
22212;DHT22;11275;52.488;13.462;2023-07-31T04:43:52;18.10;99.90
22212;DHT22;11275;52.488;13.462;2023-07-31T04:46:18;18.10;99.90
22212;DHT22;11275;52.488;13.462;2023-07-31T04:48:43;18.10;99.90
22212;DHT22;11275;52.488;13.462;2023-07-31T04:51:09;18.10;99.90
22212;DHT22;11275;52.488;13.462;2023-07-31T04:53:36;18.10;99.90
22212;DHT22;11275;52.488;13.462;2023-07-31T04:56:02;18.10;99.90
22212;DHT22;11275;52.488;13.462;2023-07-31T04:58:28;18.10;99.90
22212;DHT22;11275;52.488;13.462;2023-07-31T05:00:53;18.10;99.90
22212;DHT22;11275;52.488;13.462;2023-07-31T05:03:19;18.20;99.90
22212;DHT22;11275;52.488;13.462;2023-07-31T05:05:45;18.20;99.90
22212;DHT22;11275;52.488;13.462;2023-07-31T05:08:10;18.20;99.90
22212;DHT22;11275;52.488;13.462;2023-07-31T05:10:36;18.30;99.90
22212;DHT22;11275;52.488;13.462;2023-07-31T05:13:01;18.30;99.90
22212;DHT22;11275;52.488;13.462;2023-07-31T05:15:28;18.30;99.90
22212;DHT22;11275;52.488;13.462;2023-07-31T05:17:53;18.40;99.90
22212;DHT22;11275;52.488;13.462;2023-07-31T05:20:19;18.40;99.90
22212;DHT22;11275;52.488;13.462;2023-07-31T05:22:44;18.40;99.90
22212;DHT22;11275;52.488;13.462;2023-07-31T05:25:10;18.50;99.90
22212;DHT22;11275;52.488;13.462;2023-07-31T05:27:36;18.50;99.90
22212;DHT22;11275;52.488;13.462;2023-07-31T05:30:01;18.50;99.90
22212;DHT22;11275;52.488;13.462;2023-07-31T05:32:27;18.60;99.90
22212;DHT22;11275;52.488;13.462;2023-07-31T05:34:53;18.50;99.90
22212;DHT22;11275;52.488;13.462;2023-07-31T05:37:19;18.50;99.90
22212;DHT22;11275;52.488;13.462;2023-07-31T05:39:45;18.50;99.90
22212;DHT22;11275;52.488;13.462;2023-07-31T05:42:10;18.60;99.90
22212;DHT22;11275;52.488;13.462;2023-07-31T05:44:36;18.60;99.90
22212;DHT22;11275;52.488;13.462;2023-07-31T05:47:02;18.60;99.90
22212;DHT22;11275;52.488;13.462;2023-07-31T05:49:28;18.60;99.90
22212;DHT22;11275;52.488;13.462;2023-07-31T05:51:53;18.60;99.90
22212;DHT22;11275;52.488;13.462;2023-07-31T05:54:19;18.60;99.90
22212;DHT22;11275;52.488;13.462;2023-07-31T05:56:44;18.50;99.90
22212;DHT22;11275;52.488;13.462;2023-07-31T05:59:12;18.50;99.90
22212;DHT22;11275;52.488;13.462;2023-07-31T06:01:38;18.60;99.90
22212;DHT22;11275;52.488;13.462;2023-07-31T06:04:03;18.60;99.90
22212;DHT22;11275;52.488;13.462;2023-07-31T06:06:29;18.60;99.90
22212;DHT22;11275;52.488;13.462;2023-07-31T06:08:54;18.70;99.90
22212;DHT22;11275;52.488;13.462;2023-07-31T06:11:21;18.70;99.90
22212;DHT22;11275;52.488;13.462;2023-07-31T06:13:47;18.70;99.90
22212;DHT22;11275;52.488;13.462;2023-07-31T06:16:14;18.70;99.90
22212;DHT22;11275;52.488;13.462;2023-07-31T06:18:41;18.70;99.90
22212;DHT22;11275;52.488;13.462;2023-07-31T06:21:07;18.80;99.90
22212;DHT22;11275;52.488;13.462;2023-07-31T06:23:33;18.80;99.90
22212;DHT22;11275;52.488;13.462;2023-07-31T06:25:59;18.80;99.90
22212;DHT22;11275;52.488;13.462;2023-07-31T06:28:31;18.90;99.90
22212;DHT22;11275;52.488;13.462;2023-07-31T06:30:58;18.90;99.90
22212;DHT22;11275;52.488;13.462;2023-07-31T06:33:24;18.90;99.90
22212;DHT22;11275;52.488;13.462;2023-07-31T06:35:50;18.90;99.90
22212;DHT22;11275;52.488;13.462;2023-07-31T06:38:18;18.90;99.90
22212;DHT22;11275;52.488;13.462;2023-07-31T06:40:43;19.00;99.90
22212;DHT22;11275;52.488;13.462;2023-07-31T06:43:09;19.00;99.90
22212;DHT22;11275;52.488;13.462;2023-07-31T06:45:35;19.10;99.90
22212;DHT22;11275;52.488;13.462;2023-07-31T06:48:01;19.20;99.90
22212;DHT22;11275;52.488;13.462;2023-07-31T06:50:28;19.30;99.90
22212;DHT22;11275;52.488;13.462;2023-07-31T06:52:54;19.30;99.90
22212;DHT22;11275;52.488;13.462;2023-07-31T06:55:20;19.40;99.90
22212;DHT22;11275;52.488;13.462;2023-07-31T06:57:47;19.40;99.90
22212;DHT22;11275;52.488;13.462;2023-07-31T07:00:13;19.30;99.90
22212;DHT22;11275;52.488;13.462;2023-07-31T07:02:39;19.30;99.90
22212;DHT22;11275;52.488;13.462;2023-07-31T07:05:06;19.40;99.90
22212;DHT22;11275;52.488;13.462;2023-07-31T07:07:32;19.50;99.90
22212;DHT22;11275;52.488;13.462;2023-07-31T07:09:58;19.50;99.90
22212;DHT22;11275;52.488;13.462;2023-07-31T07:12:30;19.50;99.90
22212;DHT22;11275;52.488;13.462;2023-07-31T07:14:56;19.50;99.90
22212;DHT22;11275;52.488;13.462;2023-07-31T07:17:29;19.50;99.90
22212;DHT22;11275;52.488;13.462;2023-07-31T07:19:59;19.40;99.90
22212;DHT22;11275;52.488;13.462;2023-07-31T07:22:25;19.30;99.90
22212;DHT22;11275;52.488;13.462;2023-07-31T07:24:51;19.30;99.90
22212;DHT22;11275;52.488;13.462;2023-07-31T07:27:17;19.30;99.90
22212;DHT22;11275;52.488;13.462;2023-07-31T07:29:43;19.40;99.90
22212;DHT22;11275;52.488;13.462;2023-07-31T07:32:08;19.50;99.90
22212;DHT22;11275;52.488;13.462;2023-07-31T07:34:34;19.50;99.90
22212;DHT22;11275;52.488;13.462;2023-07-31T07:36:59;19.60;99.90
22212;DHT22;11275;52.488;13.462;2023-07-31T07:39:25;19.70;99.90
22212;DHT22;11275;52.488;13.462;2023-07-31T07:41:51;19.80;99.90
22212;DHT22;11275;52.488;13.462;2023-07-31T07:44:18;19.80;99.90
22212;DHT22;11275;52.488;13.462;2023-07-31T07:46:44;19.90;99.90
22212;DHT22;11275;52.488;13.462;2023-07-31T07:49:09;19.80;99.90
22212;DHT22;11275;52.488;13.462;2023-07-31T07:51:35;19.90;99.90
22212;DHT22;11275;52.488;13.462;2023-07-31T07:54:01;20.00;99.90
22212;DHT22;11275;52.488;13.462;2023-07-31T07:56:27;20.10;99.90
22212;DHT22;11275;52.488;13.462;2023-07-31T07:58:53;20.20;99.90
22212;DHT22;11275;52.488;13.462;2023-07-31T08:01:19;20.20;99.90
22212;DHT22;11275;52.488;13.462;2023-07-31T08:03:46;20.10;99.90
22212;DHT22;11275;52.488;13.462;2023-07-31T08:06:14;20.10;99.90
22212;DHT22;11275;52.488;13.462;2023-07-31T08:08:40;20.10;99.90
22212;DHT22;11275;52.488;13.462;2023-07-31T08:11:05;20.10;99.90
22212;DHT22;11275;52.488;13.462;2023-07-31T08:13:31;20.10;99.90
22212;DHT22;11275;52.488;13.462;2023-07-31T08:15:57;20.00;99.90
22212;DHT22;11275;52.488;13.462;2023-07-31T08:18:23;19.90;99.90
22212;DHT22;11275;52.488;13.462;2023-07-31T08:20:48;19.90;99.90
22212;DHT22;11275;52.488;13.462;2023-07-31T08:23:14;20.00;99.90
22212;DHT22;11275;52.488;13.462;2023-07-31T08:25:40;20.00;99.90
22212;DHT22;11275;52.488;13.462;2023-07-31T08:28:06;20.00;99.90
22212;DHT22;11275;52.488;13.462;2023-07-31T08:30:32;20.00;99.90
22212;DHT22;11275;52.488;13.462;2023-07-31T08:33:01;20.00;99.90
22212;DHT22;11275;52.488;13.462;2023-07-31T08:35:27;20.20;99.90
22212;DHT22;11275;52.488;13.462;2023-07-31T08:37:55;20.20;99.90
22212;DHT22;11275;52.488;13.462;2023-07-31T08:40:21;20.30;99.90
22212;DHT22;11275;52.488;13.462;2023-07-31T08:42:53;20.40;99.90
22212;DHT22;11275;52.488;13.462;2023-07-31T08:45:20;20.40;99.90
22212;DHT22;11275;52.488;13.462;2023-07-31T08:47:50;20.40;99.90
22212;DHT22;11275;52.488;13.462;2023-07-31T08:50:18;20.40;99.90
22212;DHT22;11275;52.488;13.462;2023-07-31T08:52:45;20.40;99.90
22212;DHT22;11275;52.488;13.462;2023-07-31T08:55:11;20.40;99.90
22212;DHT22;11275;52.488;13.462;2023-07-31T08:57:38;20.50;99.90
22212;DHT22;11275;52.488;13.462;2023-07-31T09:00:08;20.70;99.90
22212;DHT22;11275;52.488;13.462;2023-07-31T09:02:35;20.80;99.90
22212;DHT22;11275;52.488;13.462;2023-07-31T09:05:07;20.60;99.90
22212;DHT22;11275;52.488;13.462;2023-07-31T09:07:34;20.60;99.90
22212;DHT22;11275;52.488;13.462;2023-07-31T09:10:02;20.60;99.90
22212;DHT22;11275;52.488;13.462;2023-07-31T09:12:28;20.60;99.90
22212;DHT22;11275;52.488;13.462;2023-07-31T09:14:53;20.70;99.90
22212;DHT22;11275;52.488;13.462;2023-07-31T09:17:33;20.80;99.90
22212;DHT22;11275;52.488;13.462;2023-07-31T09:20:13;20.80;99.90
22212;DHT22;11275;52.488;13.462;2023-07-31T09:22:40;20.70;99.90
22212;DHT22;11275;52.488;13.462;2023-07-31T09:27:53;20.80;99.90
22212;DHT22;11275;52.488;13.462;2023-07-31T09:30:20;20.80;99.90
22212;DHT22;11275;52.488;13.462;2023-07-31T09:32:47;20.80;99.90
22212;DHT22;11275;52.488;13.462;2023-07-31T09:35:31;20.80;99.90
22212;DHT22;11275;52.488;13.462;2023-07-31T09:38:15;20.70;99.90
22212;DHT22;11275;52.488;13.462;2023-07-31T09:40:43;20.50;99.90
22212;DHT22;11275;52.488;13.462;2023-07-31T09:43:22;20.40;99.90
22212;DHT22;11275;52.488;13.462;2023-07-31T09:45:48;20.40;99.90
22212;DHT22;11275;52.488;13.462;2023-07-31T09:48:16;20.30;99.90
22212;DHT22;11275;52.488;13.462;2023-07-31T09:50:43;20.40;99.90
22212;DHT22;11275;52.488;13.462;2023-07-31T09:53:10;20.30;99.90
22212;DHT22;11275;52.488;13.462;2023-07-31T09:55:36;20.40;99.90
22212;DHT22;11275;52.488;13.462;2023-07-31T09:58:05;20.50;99.90
22212;DHT22;11275;52.488;13.462;2023-07-31T10:00:31;20.50;99.90
22212;DHT22;11275;52.488;13.462;2023-07-31T10:03:00;20.60;99.90
22212;DHT22;11275;52.488;13.462;2023-07-31T10:05:34;20.60;99.90
22212;DHT22;11275;52.488;13.462;2023-07-31T10:07:59;20.70;99.90
22212;DHT22;11275;52.488;13.462;2023-07-31T10:10:26;20.70;99.90
22212;DHT22;11275;52.488;13.462;2023-07-31T10:12:54;20.70;99.90
22212;DHT22;11275;52.488;13.462;2023-07-31T10:15:21;20.80;99.90
22212;DHT22;11275;52.488;13.462;2023-07-31T10:17:48;20.80;99.90
22212;DHT22;11275;52.488;13.462;2023-07-31T10:20:14;20.80;99.90
22212;DHT22;11275;52.488;13.462;2023-07-31T10:22:42;20.90;99.90
22212;DHT22;11275;52.488;13.462;2023-07-31T10:25:09;20.90;99.90
22212;DHT22;11275;52.488;13.462;2023-07-31T10:27:36;20.90;99.90
22212;DHT22;11275;52.488;13.462;2023-07-31T10:30:04;20.90;99.90
22212;DHT22;11275;52.488;13.462;2023-07-31T10:32:31;20.70;99.90
22212;DHT22;11275;52.488;13.462;2023-07-31T10:34:58;20.60;99.90
22212;DHT22;11275;52.488;13.462;2023-07-31T10:37:25;20.80;99.90
22212;DHT22;11275;52.488;13.462;2023-07-31T10:40:00;20.90;99.90
22212;DHT22;11275;52.488;13.462;2023-07-31T10:44:59;21.30;99.90
22212;DHT22;11275;52.488;13.462;2023-07-31T10:47:25;21.50;99.90
22212;DHT22;11275;52.488;13.462;2023-07-31T10:49:51;21.60;99.90
22212;DHT22;11275;52.488;13.462;2023-07-31T10:52:21;21.70;99.90
22212;DHT22;11275;52.488;13.462;2023-07-31T10:57:50;22.00;99.90
22212;DHT22;11275;52.488;13.462;2023-07-31T11:00:24;22.10;99.90
22212;DHT22;11275;52.488;13.462;2023-07-31T11:03:13;22.10;99.90
22212;DHT22;11275;52.488;13.462;2023-07-31T11:05:44;22.20;99.90
22212;DHT22;11275;52.488;13.462;2023-07-31T11:10:38;22.30;99.90
22212;DHT22;11275;52.488;13.462;2023-07-31T11:13:04;22.50;99.90
22212;DHT22;11275;52.488;13.462;2023-07-31T11:15:31;22.50;99.90
22212;DHT22;11275;52.488;13.462;2023-07-31T11:17:56;22.40;99.90
22212;DHT22;11275;52.488;13.462;2023-07-31T11:20:24;22.30;99.90
22212;DHT22;11275;52.488;13.462;2023-07-31T11:22:50;22.30;99.90
22212;DHT22;11275;52.488;13.462;2023-07-31T11:25:16;22.30;99.90
22212;DHT22;11275;52.488;13.462;2023-07-31T11:27:43;22.40;99.90
22212;DHT22;11275;52.488;13.462;2023-07-31T11:30:09;22.50;99.90
22212;DHT22;11275;52.488;13.462;2023-07-31T11:32:38;22.50;99.90
22212;DHT22;11275;52.488;13.462;2023-07-31T11:35:04;22.50;99.90
22212;DHT22;11275;52.488;13.462;2023-07-31T11:37:41;22.60;99.90
22212;DHT22;11275;52.488;13.462;2023-07-31T11:40:07;22.70;99.90
22212;DHT22;11275;52.488;13.462;2023-07-31T11:42:35;22.80;99.90
22212;DHT22;11275;52.488;13.462;2023-07-31T11:45:04;22.80;99.90
22212;DHT22;11275;52.488;13.462;2023-07-31T11:47:33;22.70;99.90
22212;DHT22;11275;52.488;13.462;2023-07-31T11:50:05;22.50;99.90
22212;DHT22;11275;52.488;13.462;2023-07-31T11:52:37;22.30;99.90
22212;DHT22;11275;52.488;13.462;2023-07-31T11:55:06;22.40;99.90
22212;DHT22;11275;52.488;13.462;2023-07-31T11:57:36;22.40;99.90
22212;DHT22;11275;52.488;13.462;2023-07-31T12:00:03;22.30;99.90
22212;DHT22;11275;52.488;13.462;2023-07-31T12:02:29;22.20;99.90
22212;DHT22;11275;52.488;13.462;2023-07-31T12:04:56;22.20;99.90
22212;DHT22;11275;52.488;13.462;2023-07-31T12:07:24;22.10;99.90
22212;DHT22;11275;52.488;13.462;2023-07-31T12:09:56;22.00;99.90
22212;DHT22;11275;52.488;13.462;2023-07-31T12:12:23;21.90;99.90
22212;DHT22;11275;52.488;13.462;2023-07-31T12:14:49;22.00;99.90
22212;DHT22;11275;52.488;13.462;2023-07-31T12:17:17;22.10;99.90
22212;DHT22;11275;52.488;13.462;2023-07-31T12:19:43;22.30;99.90
22212;DHT22;11275;52.488;13.462;2023-07-31T12:22:15;22.50;99.90
22212;DHT22;11275;52.488;13.462;2023-07-31T12:24:43;22.50;99.90
22212;DHT22;11275;52.488;13.462;2023-07-31T12:27:14;22.50;99.90
22212;DHT22;11275;52.488;13.462;2023-07-31T12:29:41;22.80;99.90
22212;DHT22;11275;52.488;13.462;2023-07-31T12:32:24;22.90;99.90
22212;DHT22;11275;52.488;13.462;2023-07-31T12:34:58;22.90;99.90
22212;DHT22;11275;52.488;13.462;2023-07-31T12:37:24;22.90;99.90
22212;DHT22;11275;52.488;13.462;2023-07-31T12:39:50;23.10;99.90
22212;DHT22;11275;52.488;13.462;2023-07-31T12:42:17;23.10;99.90
22212;DHT22;11275;52.488;13.462;2023-07-31T12:44:43;23.10;99.90
22212;DHT22;11275;52.488;13.462;2023-07-31T12:47:08;23.20;99.90
22212;DHT22;11275;52.488;13.462;2023-07-31T12:49:34;23.10;99.90
22212;DHT22;11275;52.488;13.462;2023-07-31T12:51:59;23.10;99.90
22212;DHT22;11275;52.488;13.462;2023-07-31T12:54:25;23.30;99.90
22212;DHT22;11275;52.488;13.462;2023-07-31T12:56:51;23.30;99.90
22212;DHT22;11275;52.488;13.462;2023-07-31T12:59:16;23.40;99.90
22212;DHT22;11275;52.488;13.462;2023-07-31T13:01:42;23.50;99.90
22212;DHT22;11275;52.488;13.462;2023-07-31T13:04:07;23.50;99.90
22212;DHT22;11275;52.488;13.462;2023-07-31T13:06:34;23.50;99.90
22212;DHT22;11275;52.488;13.462;2023-07-31T13:08:59;23.40;99.90
22212;DHT22;11275;52.488;13.462;2023-07-31T13:11:25;23.30;99.90
22212;DHT22;11275;52.488;13.462;2023-07-31T13:13:51;23.10;99.90
22212;DHT22;11275;52.488;13.462;2023-07-31T13:16:17;23.00;99.90
22212;DHT22;11275;52.488;13.462;2023-07-31T13:18:42;22.90;99.90
22212;DHT22;11275;52.488;13.462;2023-07-31T13:21:08;22.90;99.90
22212;DHT22;11275;52.488;13.462;2023-07-31T13:23:33;22.80;99.90
22212;DHT22;11275;52.488;13.462;2023-07-31T13:25:59;22.70;99.90
22212;DHT22;11275;52.488;13.462;2023-07-31T13:28:24;22.70;99.90
22212;DHT22;11275;52.488;13.462;2023-07-31T13:30:50;22.60;99.90
22212;DHT22;11275;52.488;13.462;2023-07-31T13:33:16;22.50;99.90
22212;DHT22;11275;52.488;13.462;2023-07-31T13:35:41;22.50;99.90
22212;DHT22;11275;52.488;13.462;2023-07-31T13:38:07;22.40;99.90
22212;DHT22;11275;52.488;13.462;2023-07-31T13:40:32;22.70;99.90
22212;DHT22;11275;52.488;13.462;2023-07-31T13:42:58;23.10;99.90
22212;DHT22;11275;52.488;13.462;2023-07-31T13:45:24;23.30;99.90
22212;DHT22;11275;52.488;13.462;2023-07-31T13:47:50;23.40;99.90
22212;DHT22;11275;52.488;13.462;2023-07-31T13:50:16;23.50;99.90
22212;DHT22;11275;52.488;13.462;2023-07-31T13:52:44;23.50;99.90
22212;DHT22;11275;52.488;13.462;2023-07-31T13:55:10;23.60;99.90
22212;DHT22;11275;52.488;13.462;2023-07-31T13:57:35;23.70;99.90
22212;DHT22;11275;52.488;13.462;2023-07-31T14:00:04;23.70;99.90
22212;DHT22;11275;52.488;13.462;2023-07-31T14:02:30;23.80;99.90
22212;DHT22;11275;52.488;13.462;2023-07-31T14:04:56;23.70;99.90
22212;DHT22;11275;52.488;13.462;2023-07-31T14:07:21;23.60;99.90
22212;DHT22;11275;52.488;13.462;2023-07-31T14:09:47;23.60;99.90
22212;DHT22;11275;52.488;13.462;2023-07-31T14:12:12;23.70;99.90
22212;DHT22;11275;52.488;13.462;2023-07-31T14:14:38;23.60;99.90
22212;DHT22;11275;52.488;13.462;2023-07-31T14:17:04;23.70;99.90
22212;DHT22;11275;52.488;13.462;2023-07-31T14:19:30;23.60;99.90
22212;DHT22;11275;52.488;13.462;2023-07-31T14:21:58;23.60;99.90
22212;DHT22;11275;52.488;13.462;2023-07-31T14:24:24;23.60;99.90
22212;DHT22;11275;52.488;13.462;2023-07-31T14:26:49;23.50;99.90
22212;DHT22;11275;52.488;13.462;2023-07-31T14:29:15;23.40;99.90
22212;DHT22;11275;52.488;13.462;2023-07-31T14:31:41;23.30;99.90
22212;DHT22;11275;52.488;13.462;2023-07-31T14:34:06;23.10;99.90
22212;DHT22;11275;52.488;13.462;2023-07-31T14:36:32;23.10;99.90
22212;DHT22;11275;52.488;13.462;2023-07-31T14:38:57;23.10;99.90
22212;DHT22;11275;52.488;13.462;2023-07-31T14:41:23;23.30;99.90
22212;DHT22;11275;52.488;13.462;2023-07-31T14:43:49;23.40;99.90
22212;DHT22;11275;52.488;13.462;2023-07-31T14:46:14;23.50;99.90
22212;DHT22;11275;52.488;13.462;2023-07-31T14:48:40;23.50;99.90
22212;DHT22;11275;52.488;13.462;2023-07-31T14:51:05;23.50;99.90
22212;DHT22;11275;52.488;13.462;2023-07-31T14:53:31;23.50;99.90
22212;DHT22;11275;52.488;13.462;2023-07-31T14:55:56;23.50;99.90
22212;DHT22;11275;52.488;13.462;2023-07-31T14:58:22;23.40;99.90
22212;DHT22;11275;52.488;13.462;2023-07-31T15:00:49;23.40;99.90
22212;DHT22;11275;52.488;13.462;2023-07-31T15:03:14;23.30;99.90
22212;DHT22;11275;52.488;13.462;2023-07-31T15:05:40;23.20;99.90
22212;DHT22;11275;52.488;13.462;2023-07-31T15:08:06;23.20;99.90
22212;DHT22;11275;52.488;13.462;2023-07-31T15:10:31;23.10;99.90
22212;DHT22;11275;52.488;13.462;2023-07-31T15:12:57;23.10;99.90
22212;DHT22;11275;52.488;13.462;2023-07-31T15:15:23;23.00;99.90
22212;DHT22;11275;52.488;13.462;2023-07-31T15:17:49;23.00;99.90
22212;DHT22;11275;52.488;13.462;2023-07-31T15:20:14;23.00;99.90
22212;DHT22;11275;52.488;13.462;2023-07-31T15:22:40;22.90;99.90
22212;DHT22;11275;52.488;13.462;2023-07-31T15:25:06;22.90;99.90
22212;DHT22;11275;52.488;13.462;2023-07-31T15:27:32;22.90;99.90
22212;DHT22;11275;52.488;13.462;2023-07-31T15:29:58;22.90;99.90